Flight Track Log - Related Links

Times and Time Zones

All times are in EDT time to prevent confusion due to time zone crossing. See the JUS327 flight status page for this flight to view local times or setup timezone preferences in your user account.

Time Position Orientation Groundspeed Altitude Reporting Facility
EDT Latitude Longitude Course Direction KTS MPH feet Rate Location/Type
Thu 05:25:54 PM 42.2239 -83.5528 223° Southwest 155 178 1,900  Level Cleveland Center
Thu 05:26:55 PM 42.1828 -83.6039 223° Southwest 210 242 3,400 1,805 Climbing Cleveland Center
Thu 05:27:57 PM 42.1272 -83.6544 214° Southwest 256 295 5,600 2,409 Climbing Cleveland Center
Thu 05:29:12 PM 42.0433 -83.6756 191° South 282 325 8,900 2,418 Climbing Cleveland Center
Thu 05:30:11 PM 41.9697 -83.7000 194° South 282 325 11,000 2,118 Climbing Cleveland Center
Thu 05:31:11 PM 41.8836 -83.7267 193° South 294 338 13,100 2,200 Climbing Cleveland Center
Thu 05:32:11 PM 41.7931 -83.7583 195° South 321 369 15,400 2,350 Climbing Cleveland Center
Thu 05:33:11 PM 41.7006 -83.7872 193° South 335 386 17,800 2,300 Climbing Cleveland Center
Thu 05:34:11 PM 41.6114 -83.8356 202° Southwest 345 397 20,000 1,884 Climbing Cleveland Center
Thu 05:35:12 PM 41.5283 -83.9006 210° Southwest 345 397 21,600 1,550 Climbing Cleveland Center
Thu 05:36:11 PM 41.4406 -83.9764 213° Southwest 361 415 23,100 1,613 Climbing Cleveland Center
Thu 05:37:11 PM 41.3686 -84.0781 227° Southwest 373 429 24,800 1,673 Climbing Cleveland Center
Thu 05:38:38 PM 41.2919 -84.2750 243° Southwest 394 453 27,200 1,400 Climbing Chicago Center
Thu 05:39:41 PM 41.2539 -84.4167 250° West 404 465 28,300 960 Climbing Chicago Center
Thu 05:40:43 PM 41.2044 -84.5561 245° Southwest 415 478 29,200 1,065 Climbing Chicago Center
Thu 05:41:45 PM 41.1514 -84.6978 244° Southwest 424 488 30,500 1,306 Climbing Chicago Center
Thu 05:42:47 PM 41.1042 -84.8394 246° West 421 484 31,900 1,500 Climbing Chicago Center
Thu 05:43:49 PM 41.0558 -84.9786 245° Southwest 416 479 33,600 1,016 Climbing Chicago Center
Thu 05:44:51 PM 41.0044 -85.1136 243° Southwest 411 473 34,000 194 Climbing Chicago Center
Thu 05:45:53 PM 40.9453 -85.2756 244° Southwest 409 471 34,000  Level Chicago Center
Thu 05:46:55 PM 40.8686 -85.3742 224° Southwest 412 474 34,000  Level Chicago Center
Thu 05:47:57 PM 40.7656 -85.4325 203° Southwest 403 464 34,000  Level Chicago Center
Thu 05:48:59 PM 40.6611 -85.4956 205° Southwest 397 457 34,000  Level Chicago Center
Thu 05:50:02 PM 40.5714 -85.5819 216° Southwest 399 459 34,000  Level Chicago Center
Thu 05:51:04 PM 40.4875 -85.6817 222° Southwest 406 467 34,000  Level Chicago Center
Thu 05:52:06 PM 40.4017 -85.7783 221° Southwest 408 470 34,000  Level Chicago Center
Thu 05:53:08 PM 40.2931 -85.8850 217° Southwest 409 471 34,000  Level Chicago Center
Thu 05:54:10 PM 40.2031 -85.9728 217° Southwest 406 467 34,000  Level Chicago Center
Thu 05:55:12 PM 40.1139 -86.0633 218° Southwest 407 468 34,000  Level Chicago Center
Thu 05:56:14 PM 40.0261 -86.1556 219° Southwest 406 467 34,000  Level Indianapolis Center
Thu 05:57:16 PM 39.9378 -86.2461 218° Southwest 409 471 34,000  Level Chicago Center
Thu 05:58:18 PM 39.8314 -86.3531 218° Southwest 407 468 34,000  Level Chicago Center
Thu 05:59:20 PM 39.7422 -86.4350 215° Southwest 410 472 34,000  Level Indianapolis Center
Thu 06:00:22 PM 39.6467 -86.5083 211° Southwest 408 470 34,000  Level Indianapolis Center
Thu 06:01:24 PM 39.5472 -86.5758 208° Southwest 407 468 34,000  Level Indianapolis Center
Thu 06:02:26 PM 39.4281 -86.6572 208° Southwest 406 467 34,000  Level Indianapolis Center
Thu 06:03:28 PM 39.3300 -86.7311 210° Southwest 409 471 34,000  Level Indianapolis Center
Thu 06:04:30 PM 39.2333 -86.8072 211° Southwest 409 471 34,000  Level Indianapolis Center
Thu 06:05:32 PM 39.1278 -86.8864 210° Southwest 409 471 34,000  Level Indianapolis Center
Thu 06:06:34 PM 39.0292 -86.9589 210° Southwest 409 471 34,000  Level Indianapolis Center
Thu 06:07:36 PM 38.9289 -87.0303 209° Southwest 411 473 34,000  Level Indianapolis Center
Thu 06:08:38 PM 38.8297 -87.1031 210° Southwest 411 473 34,000  Level Indianapolis Center
Thu 06:09:40 PM 38.7306 -87.1761 210° Southwest 411 473 34,000  Level Indianapolis Center
Thu 06:10:42 PM 38.6114 -87.2639 210° Southwest 413 475 34,000  Level Indianapolis Center
Thu 06:11:44 PM 38.5117 -87.3353 209° Southwest 414 476 34,000  Level Indianapolis Center
Thu 06:12:46 PM 38.4117 -87.4072 209° Southwest 416 479 34,000  Level Indianapolis Center
Thu 06:13:49 PM 38.3122 -87.4819 211° Southwest 417 480 34,000  Level Indianapolis Center
Thu 06:14:51 PM 38.2114 -87.5539 209° Southwest 418 481 34,000  Level Indianapolis Center
Thu 06:15:53 PM 38.0903 -87.6422 210° Southwest 419 482 34,000  Level Indianapolis Center
Thu 06:16:55 PM 37.9892 -87.7144 209° Southwest 418 481 34,000  Level Indianapolis Center
Thu 06:17:57 PM 37.8867 -87.7878 209° Southwest 421 484 34,000  Level Indianapolis Center
Thu 06:18:59 PM 37.7861 -87.8636 211° Southwest 420 483 34,000  Level Indianapolis Center
Thu 06:20:01 PM 37.6872 -87.9475 214° Southwest 419 482 34,000  Level Indianapolis Center
Thu 06:20:44 PM 37.6097 -88.0219 217° Southwest 421 484 34,000  Level Memphis Center
Thu 06:21:44 PM 37.5133 -88.0981 212° Southwest 421 484 34,000  Level Memphis Center
Thu 06:22:44 PM 37.4147 -88.1767 212° Southwest 421 484 34,000  Level Memphis Center
Thu 06:23:44 PM 37.3181 -88.2497 211° Southwest 421 484 34,000  Level Memphis Center
Thu 06:24:44 PM 37.2194 -88.3253 211° Southwest 421 484 34,000  Level Memphis Center
Thu 06:25:44 PM 37.1228 -88.4006 212° Southwest 421 484 34,000  Level Memphis Center
Thu 06:26:44 PM 37.0258 -88.4731 211° Southwest 421 484 34,000  Level Memphis Center
Thu 06:27:44 PM 36.9311 -88.5453 211° Southwest 421 484 34,000  Level Memphis Center
Thu 06:28:44 PM 36.8364 -88.6175 211° Southwest 416 479 34,000  Level Memphis Center
Thu 06:29:44 PM 36.7414 -88.6947 213° Southwest 416 479 34,000  Level Memphis Center
Thu 06:30:44 PM 36.6444 -88.7639 210° Southwest 410 472 34,000  Level Memphis Center
Thu 06:31:44 PM 36.5517 -88.8356 212° Southwest 410 472 34,000  Level Memphis Center
Thu 06:32:44 PM 36.4544 -88.9094 211° Southwest 410 472 34,000  Level Memphis Center
Thu 06:34:00 PM 36.3391 -88.9930 210° Southwest  Level FlightAware Approximate
Thu 06:34:44 PM 36.2703 -89.0417 210° Southwest 410 472 34,000  Level Memphis Center
Thu 06:35:44 PM 36.1753 -89.1175 213° Southwest 410 472 34,000  Level Memphis Center
Thu 06:36:44 PM 36.0758 -89.1911 211° Southwest 410 472 34,000  Level Memphis Center
Thu 06:37:44 PM 35.9806 -89.2642 212° Southwest 410 472 34,000  Level Memphis Center
Thu 06:38:44 PM 35.8833 -89.3372 211° Southwest 410 472 34,000  Level Memphis Center
Thu 06:39:44 PM 35.7858 -89.4103 211° Southwest 410 472 34,000  Level Memphis Center
Thu 06:40:44 PM 35.6906 -89.4828 212° Southwest 410 472 34,000  Level Memphis Center
Thu 06:41:44 PM 35.5992 -89.5528 212° Southwest 405 466 34,000  Level Memphis Center
Thu 06:42:44 PM 35.4933 -89.6328 212° Southwest 410 472 34,000  Level Memphis Center
Thu 06:43:44 PM 35.3978 -89.7050 212° Southwest 410 472 34,000  Level Memphis Center
Thu 06:44:44 PM 35.3000 -89.7769 211° Southwest 410 472 34,000  Level Memphis Center
Thu 06:45:44 PM 35.2025 -89.8489 211° Southwest 410 472 34,000  Level Memphis Center
Thu 06:46:44 PM 35.1025 -89.9231 211° Southwest 410 472 34,000  Level Memphis Center
Thu 06:47:44 PM 35.0047 -89.9944 211° Southwest 410 472 34,000  Level Memphis Center
Thu 06:48:44 PM 34.9111 -90.0811 217° Southwest 420 483 34,000  Level Memphis Center
Thu 06:49:44 PM 34.8444 -90.1978 235° Southwest 420 483 34,000  Level Memphis Center
Thu 06:50:44 PM 34.7925 -90.3242 243° Southwest 420 483 34,000  Level Memphis Center
Thu 06:51:44 PM 34.7278 -90.4406 236° Southwest 431 496 34,000  Level Memphis Center
Thu 06:52:44 PM 34.6567 -90.5592 234° Southwest 426 490 34,000  Level Memphis Center
Thu 06:53:44 PM 34.5875 -90.6725 233° Southwest 431 496 34,000  Level Memphis Center
Thu 06:54:44 PM 34.5142 -90.7881 232° Southwest 431 496 34,000  Level Memphis Center
Thu 06:55:44 PM 34.4428 -90.9011 233° Southwest 436 502 34,000  Level Memphis Center
Thu 06:56:44 PM 34.3692 -91.0164 232° Southwest 431 496 34,000  Level Memphis Center
Thu 06:57:44 PM 34.3019 -91.1189 232° Southwest 431 496 34,000  Level Memphis Center
Thu 06:58:44 PM 34.2322 -91.2339 234° Southwest 431 496 34,000  Level Memphis Center
Thu 06:59:44 PM 34.1625 -91.3486 234° Southwest 431 496 34,000  Level Memphis Center
Thu 07:00:44 PM 34.0906 -91.4608 232° Southwest 431 496 34,000  Level Memphis Center
Thu 07:01:44 PM 34.0186 -91.5750 233° Southwest 431 496 34,000  Level Memphis Center
Thu 07:02:44 PM 33.9444 -91.6842 231° Southwest 431 496 34,000  Level Memphis Center
Thu 07:03:44 PM 33.8786 -91.7983 235° Southwest 425 489 34,000 -250 Level Memphis Center
Thu 07:04:44 PM 33.8103 -91.9122 234° Southwest 431 496 33,500 -2,023 Descending Memphis Center
Thu 07:06:39 PM 33.6636 -92.1306 231° Southwest 421 484 28,100 -2,434 Descending Fort Worth Center
Thu 07:07:39 PM 33.5889 -92.2397 231° Southwest 421 484 26,400 -1,350 Descending Fort Worth Center
Thu 07:08:39 PM 33.5203 -92.3483 233° Southwest 421 484 25,400 -950 Descending Fort Worth Center
Thu 07:09:39 PM 33.4383 -92.4403 223° Southwest 410 472 24,500 -950 Descending Fort Worth Center
Thu 07:10:39 PM 33.3500 -92.5272 219° Southwest 410 472 23,500 -1,150 Descending Fort Worth Center
Thu 07:11:39 PM 33.2594 -92.6117 218° Southwest 410 472 22,200 -1,300 Descending Fort Worth Center
Thu 07:12:39 PM 33.1817 -92.7078 226° Southwest 415 478 20,900 -1,587 Descending Fort Worth Center
Thu 07:13:40 PM 33.1144 -92.8081 231° Southwest 350 403 19,000 -1,850 Descending Fort Worth Center
Thu 07:14:39 PM 33.0631 -92.8875 232° Southwest 364 419 17,200 -1,815 Descending Fort Worth Center
Thu 07:15:39 PM 32.9994 -92.9822 231° Southwest 359 413 15,400 -1,850 Descending Fort Worth Center
Thu 07:16:39 PM 32.9403 -93.0794 234° Southwest 359 413 13,500 -1,750 Descending Fort Worth Center
Thu 07:17:39 PM 32.8656 -93.1522 219° Southwest 359 413 11,900 -1,400 Descending Fort Worth Center
Thu 07:18:39 PM 32.7736 -93.2058 206° Southwest 358 412 10,700 -1,350 Descending Fort Worth Center
Thu 07:19:39 PM 32.7000 -93.2564 210° Southwest 337 388 9,200 -1,650 Descending Fort Worth Center
Thu 07:20:39 PM 32.6244 -93.3042 208° Southwest 314 361 7,400 -1,700 Descending Fort Worth Center
Thu 07:21:39 PM 32.5589 -93.3442 207° Southwest 301 346 5,800 -1,759 Descending Fort Worth Center
Thu 07:22:52 PM 32.4689 -93.4047 210° Southwest 274 315 3,500 -1,400 Descending Fort Worth Center
Thu 07:23:39 PM 32.4303 -93.4336 212° Southwest 270 311 3,000 -280 Descending Fort Worth Center
Thu 07:24:39 PM 32.3733 -93.4853 217° Southwest 249 287 3,000 -350 Level Fort Worth Center
Thu 07:25:39 PM 32.3372 -93.5336 229° Southwest 228 262 2,300 -640 Descending Fort Worth Center
Thu 07:25:54 PM 32.3214 -93.5539 227° Southwest 221 254 2,200 -300 Descending Fort Worth Center
Thu 07:26:39 PM 32.2975 -93.5942 235° Southwest 214 246 2,000 -200 Descending Fort Worth Center
Thu 07:26:54 PM 32.2875 -93.6094 232° Southwest 200 230 2,000  Level Fort Worth Center
Thu 07:27:39 PM 32.2864 -93.6439 268° West 181 208 2,000  Level Fort Worth Center
Thu 07:27:55 PM 32.2828 -93.6611 256° West 143 165 2,000  Level Fort Worth Center
Thu 07:28:56 PM 32.2986 -93.6997 296° West 122 140 2,000  Level Fort Worth Center
Thu 07:29:56 PM 32.3264 -93.7233 324° Northwest 119 137 2,000  Level Fort Worth Center
Thu 07:30:57 PM 32.3522 -93.7492 320° Northwest 118 136 2,000  Level Fort Worth Center

Login

Don't have an account? Register now (free) for customized features, flight alerts, and more!